• Join FlightAware (Why Join?)
  • Login
  • US Flag 
11:43PM EDT


 

Airport Tracker/Info


-or-


 

Live Flight TrackerFlight Track Log ✈ EJM685 ✈ 22-Feb-2014 ✈ KTEB - KIND

Flight Track Log - Related Links

Times and Time Zones

All times are in EST time to prevent confusion due to time zone crossing. See the EJM685 flight status page for this flight to view local times or setup timezone preferences in your user account.

Time Position Orientation Groundspeed Altitude Reporting Facility
EST Latitude Longitude Course Direction KTS MPH feet Rate Location/Type
07:21AM 40.8247 -74.1167 265° West 170 196 1,500  Level New York Center
07:22AM 40.8208 -74.1794 265° West 203 234 2,700 3,120 Climbing New York Center
07:23AM 40.8247 -74.2564 274° West 239 275 7,800 5,040 Climbing New York Center
07:24AM 40.8239 -74.3550 269° West 252 290 12,800 4,200 Climbing New York Center
07:25AM 40.8217 -74.4317 268° West 282 325 16,200 2,100 Climbing New York Center
07:26AM 40.8200 -74.5497 269° West 292 336 17,000 600 Climbing New York Center
07:27AM 40.8169 -74.6428 268° West 287 330 17,500 2,220 Climbing New York Center
07:28AM 40.8150 -74.7606 269° West 293 337 21,500 3,540 Climbing New York Center
07:29AM 40.8111 -74.8781 268° West 298 343 24,600 3,060 Climbing New York Center
07:30AM 40.8067 -74.9986 267° West 317 365 27,700 2,940 Climbing New York Center
07:31AM 40.8022 -75.1217 267° West 329 379 30,500 2,700 Climbing New York Center
07:32AM 40.7853 -75.2411 259° West 329 379 33,200 2,340 Climbing New York Center
07:33AM 40.7803 -75.3694 267° West 340 391 35,200 1,980 Climbing New York Center
07:34AM 40.7733 -75.4978 266° West 347 399 37,200 1,800 Climbing New York Center
07:35AM 40.7658 -75.6317 266° West 357 411 38,800 1,380 Climbing New York Center
07:36AM 40.7597 -75.7736 267° West 377 434 40,000 1,260 Climbing New York Center
07:37AM 40.7514 -75.9211 266° West 393 452 41,400 1,380 Climbing New York Center
07:38AM 40.7431 -76.0656 266° West 405 466 42,800 1,440 Climbing New York Center
07:39AM 40.7361 -76.2131 266° West 405 466 44,300 1,320 Climbing New York Center
07:40AM 40.7294 -76.3603 267° West 405 466 45,500 1,080 Climbing New York Center
07:41AM 40.7206 -76.5019 265° West 405 466 46,500 720 Climbing New York Center
07:42AM 40.7156 -76.6439 267° West 400 460 47,000 240 Climbing New York Center
07:43AM 40.7061 -76.7911 265° West 405 466 47,000  Level New York Center
07:44AM 40.6961 -76.9436 265° West 410 472 47,000  Level New York Center
07:45AM 40.6897 -77.0689 266° West 421 484 47,000  Level New York Center
07:46AM 40.6781 -77.2431 265° West 430 495 47,000  Level New York Center
07:48AM 40.6592 -77.5836 266° West 439 505 47,000  Level Cleveland Center
07:49AM 40.6478 -77.7442 265° West 440 506 47,000  Level Cleveland Center
07:50AM 40.6372 -77.9061 265° West 441 507 47,000  Level Cleveland Center
07:51AM 40.6272 -78.0717 266° West 449 517 47,000  Level Cleveland Center
07:52AM 40.6150 -78.2389 265° West 455 524 47,000  Level Cleveland Center
07:53AM 40.6025 -78.4028 264° West 454 522 47,000  Level Cleveland Center
07:54AM 40.5928 -78.5578 265° West 433 498 47,000  Level Cleveland Center
07:55AM 40.5814 -78.7072 264° West 416 479 47,000  Level Cleveland Center
07:56AM 40.5706 -78.8608 265° West 417 480 47,000  Level Cleveland Center
07:57AM 40.5592 -79.0128 264° West 417 480 47,000  Level Cleveland Center
07:58AM 40.5442 -79.1975 264° West 422 486 47,000  Level Cleveland Center
07:59AM 40.5339 -79.3297 264° West 422 486 47,000  Level Cleveland Center
08:00AM 40.5214 -79.4833 264° West 425 489 47,000  Level Cleveland Center
08:01AM 40.5064 -79.6667 264° West 421 484 47,000  Level Cleveland Center
08:02AM 40.4931 -79.8181 263° West 421 484 47,000  Level Cleveland Center
08:03AM 40.4806 -79.9703 264° West 421 484 47,000  Level Cleveland Center
08:04AM 40.4700 -80.1150 265° West 422 486 47,000  Level Cleveland Center
08:05AM 40.4561 -80.2683 263° West 422 486 47,000  Level Cleveland Center
08:06AM 40.4419 -80.4217 263° West 430 495 47,000  Level Cleveland Center
08:07AM 40.4250 -80.6111 263° West 434 499 47,000  Level Cleveland Center
08:08AM 40.4108 -80.7664 263° West 434 499 47,000  Level Cleveland Center
08:09AM 40.3964 -80.9214 263° West 433 498 47,000  Level Cleveland Center
08:10AM 40.3819 -81.0733 263° West 428 493 47,000  Level Cleveland Center
08:11AM 40.3728 -81.1667 263° West 424 488 47,000  Level Indianapolis Center
08:12AM 40.3592 -81.3222 263° West 423 487 47,000  Level Indianapolis Center
08:13AM 40.3567 -81.4781 269° West 423 487 47,000  Level Indianapolis Center
08:14AM 40.3550 -81.6369 269° West 425 489 47,000 -60 Level Indianapolis Center
08:15AM 40.3528 -81.7925 269° West 425 489 46,900 -660 Descending Indianapolis Center
08:16AM 40.3500 -81.9517 269° West 426 490 45,700 -1,380 Descending Indianapolis Center
08:17AM 40.3464 -82.1147 268° West 435 501 44,200 -1,440 Descending Indianapolis Center
08:18AM 40.3433 -82.2744 269° West 436 502 42,800 -1,380 Descending Indianapolis Center
08:19AM 40.3406 -82.4331 269° West 435 501 41,400 -1,380 Descending Indianapolis Center
08:20AM 40.3372 -82.5853 268° West 421 484 40,000 -1,500 Descending Indianapolis Center
08:21AM 40.3325 -82.7661 268° West 421 484 38,400 -1,440 Descending Indianapolis Center
08:22AM 40.3294 -82.9078 268° West 415 478 37,100 -1,380 Descending Indianapolis Center
08:23AM 40.3247 -83.0528 268° West 407 468 35,700 -1,320 Descending Indianapolis Center
08:24AM 40.3206 -83.1947 268° West 398 458 34,400 -1,260 Descending Indianapolis Center
08:25AM 40.3172 -83.3333 268° West 390 449 33,200 -1,200 Descending Indianapolis Center
08:26AM 40.3133 -83.4664 268° West 376 433 32,000 -1,200 Descending Indianapolis Center
08:27AM 40.3081 -83.5936 267° West 360 414 30,800 -1,020 Descending Indianapolis Center
08:28AM 40.3042 -83.7419 268° West 348 400 30,000 -720 Descending Indianapolis Center
08:29AM 40.2992 -83.8681 267° West 348 400 29,400 -900 Descending Indianapolis Center
08:30AM 40.2864 -83.9933 262° West 348 400 28,200 -1,200 Descending Indianapolis Center
08:31AM 40.2736 -84.1125 262° West 339 390 27,000 -1,140 Descending Indianapolis Center
08:32AM 40.2631 -84.2244 263° West 321 369 25,900 -1,140 Descending Indianapolis Center
08:33AM 40.2514 -84.3392 262° West 320 368 24,700 -1,140 Descending Indianapolis Center
08:34AM 40.2383 -84.4561 262° West 320 368 23,600 -1,080 Descending Indianapolis Center
08:35AM 40.2258 -84.5681 262° West 319 367 22,500 -1,140 Descending Indianapolis Center
08:36AM 40.2156 -84.6764 263° West 308 354 21,400 -1,200 Descending Indianapolis Center
08:37AM 40.2025 -84.8050 262° West 302 348 20,100 -1,200 Descending Indianapolis Center
08:38AM 40.1900 -84.9133 261° West 299 344 19,000 -1,080 Descending Indianapolis Center
08:39AM 40.1792 -85.0194 262° West 298 343 17,900 -1,080 Descending Indianapolis Center
08:41AM 40.1669 -85.1264 262° West 298 343 16,900 -1,080 Descending Indianapolis Center
08:42AM 40.1547 -85.2347 262° West 298 343 15,800 -1,080 Descending Indianapolis Center
08:43AM 40.1425 -85.3425 262° West 299 344 14,700 -1,080 Descending Indianapolis Center
08:44AM 40.1300 -85.4489 261° West 299 344 13,700 -1,140 Descending Indianapolis Center
08:45AM 40.0964 -85.5461 246° West 295 339 12,500 -1,320 Descending Indianapolis Center
08:46AM 40.0572 -85.6389 241° Southwest 295 339 11,100 -1,320 Descending Indianapolis Center
08:47AM 40.0192 -85.7344 243° Southwest 252 290 9,800 -1,140 Descending Indianapolis Center
08:48AM 39.9881 -85.8089 241° Southwest 239 275 8,800 -1,080 Descending Indianapolis Center
08:49AM 39.9581 -85.8819 242° Southwest 235 270 7,700 -1,020 Descending Indianapolis Center
08:50AM 39.9325 -85.9461 243° Southwest 219 252 6,800 -840 Descending Indianapolis Center
08:51AM 39.9086 -86.0028 241° Southwest 199 229 6,000 -780 Descending Indianapolis Center
08:52AM 39.8833 -86.0578 239° Southwest 186 214 5,300 -720 Descending Indianapolis Center
08:53AM 39.8469 -86.1111 228° Southwest 192 221 4,600 -660 Descending Indianapolis Center
08:54AM 39.8158 -86.1544 227° Southwest 182 209 4,000 -840 Descending Indianapolis Center
08:55AM 39.7906 -86.1883 226° Southwest 153 176 3,000 -1,020 Descending Indianapolis Center
08:56AM 39.7594 -86.2286 225° Southwest 137 158 2,000 -840 Descending Indianapolis Center
08:57AM 39.7361 -86.2581 224° Southwest 127 146 1,300 -600 Descending Indianapolis Center
08:58AM 39.7189 -86.2803 225° Southwest 117 135 800 -540 Descending Indianapolis Center
09:00AM 39.7167 -86.2833 229° Southwest  Level FlightAware Approximate